createdAt,value
2024-02-02T00:09:39.468Z,3.00
2024-02-02T00:19:45.137Z,2.97
2024-02-02T00:29:47.704Z,2.90
2024-02-02T00:39:53.449Z,2.97
2024-02-02T00:50:01.073Z,3.23
2024-02-02T01:00:07.548Z,2.70
2024-02-02T01:10:13.879Z,2.33
2024-02-02T01:20:19.371Z,2.10
2024-02-02T01:30:21.811Z,2.23
2024-02-02T01:40:26.017Z,2.60
2024-02-02T01:50:28.257Z,2.70
2024-02-02T02:00:34.639Z,2.27
2024-02-02T02:10:37.027Z,2.13
2024-02-02T02:20:40.878Z,2.50
2024-02-02T02:30:46.695Z,2.23
2024-02-02T02:40:48.899Z,2.80
2024-02-02T02:50:51.383Z,2.43
2024-02-02T03:01:00.790Z,2.83
2024-02-02T03:11:04.255Z,3.00
2024-02-02T03:21:09.738Z,2.80
2024-02-02T03:31:14.836Z,4.17
2024-02-02T03:41:19.119Z,3.67
2024-02-02T03:51:23.339Z,3.40
2024-02-02T04:01:31.505Z,2.33
2024-02-02T04:11:36.374Z,2.27
2024-02-02T04:21:38.631Z,2.03
2024-02-02T04:31:41.028Z,3.37
2024-02-02T04:41:48.190Z,2.93
2024-02-02T04:51:50.709Z,2.73
2024-02-02T05:01:52.903Z,3.30
2024-02-02T05:12:00.047Z,2.90
2024-02-02T05:22:02.489Z,2.93
2024-02-02T05:32:08.149Z,3.37
2024-02-02T05:42:15.299Z,2.40
2024-02-02T05:52:17.624Z,2.57
2024-02-02T06:02:20.019Z,2.67
2024-02-02T06:12:22.785Z,4.10
2024-02-02T06:22:28.229Z,3.03
2024-02-02T06:32:33.597Z,2.40
2024-02-02T06:42:36.251Z,2.20
2024-02-02T06:52:40.781Z,3.03
2024-02-02T07:02:48.137Z,3.43
2024-02-02T07:13:03.320Z,2.77
2024-02-02T07:23:06.838Z,3.47
2024-02-02T07:33:35.896Z,3.50
2024-02-02T07:43:39.167Z,3.73
2024-02-02T07:53:45.388Z,4.57
2024-02-02T08:03:53.361Z,3.60
2024-02-02T08:14:00.330Z,3.90
2024-02-02T08:24:05.847Z,3.17
2024-02-02T08:34:08.417Z,2.67
2024-02-02T08:44:25.638Z,3.07
2024-02-02T08:54:38.727Z,2.77
2024-02-02T09:05:02.765Z,2.83
2024-02-02T09:15:20.924Z,3.20
2024-02-02T09:25:32.762Z,3.33
2024-02-02T09:35:55.853Z,3.03
2024-02-02T09:46:24.616Z,3.67
2024-02-02T09:56:48.696Z,3.57
2024-02-02T10:07:06.021Z,3.63
2024-02-02T10:17:43.777Z,3.90
2024-02-02T10:27:55.640Z,4.03
2024-02-02T10:38:29.714Z,4.20
2024-02-02T10:49:02.655Z,3.67
2024-02-02T10:59:22.212Z,3.60
2024-02-02T11:10:04.561Z,2.97
2024-02-02T11:20:10.037Z,3.50
2024-02-02T11:30:45.188Z,4.67
2024-02-02T11:40:52.208Z,4.57
2024-02-02T11:50:55.157Z,4.10
2024-02-02T12:01:00.407Z,4.10
2024-02-02T12:11:03.432Z,3.60
2024-02-02T12:21:16.914Z,4.50
2024-02-02T12:31:19.320Z,4.53
2024-02-02T12:41:28.893Z,5.47
2024-02-02T12:51:33.455Z,4.53
2024-02-02T13:01:43.189Z,4.17
2024-02-02T13:11:50.031Z,4.03
2024-02-02T13:22:03.744Z,4.47
2024-02-02T13:32:16.758Z,5.10
2024-02-02T13:42:21.433Z,5.37
2024-02-02T13:52:27.770Z,5.20
2024-02-02T14:02:39.552Z,4.33
2024-02-02T14:12:44.356Z,6.37
2024-02-02T14:22:53.024Z,6.20
2024-02-02T14:33:08.604Z,5.60
2024-02-02T14:43:19.426Z,5.50
2024-02-02T14:53:23.892Z,5.03
2024-02-02T15:03:28.668Z,4.80
2024-02-02T15:13:36.386Z,4.87
2024-02-02T15:23:39.166Z,5.53
2024-02-02T15:33:41.689Z,5.97
2024-02-02T15:43:46.559Z,7.17
2024-02-02T15:53:51.416Z,6.60
2024-02-02T16:03:53.725Z,8.20
2024-02-02T16:13:57.949Z,9.00
2024-02-02T16:24:00.219Z,9.43
2024-02-02T16:34:05.715Z,9.23
2024-02-02T16:44:13.103Z,9.33
2024-02-02T16:54:22.806Z,10.33
2024-02-02T17:04:25.869Z,8.13
2024-02-02T17:14:33.220Z,8.73
2024-02-02T17:24:38.138Z,6.77
2024-02-02T17:34:40.658Z,6.23
2024-02-02T17:44:43.141Z,8.20
2024-02-02T17:54:47.469Z,6.43
2024-02-02T18:04:53.648Z,5.77
2024-02-02T18:14:58.058Z,8.87
2024-02-02T18:25:00.868Z,8.70
2024-02-02T18:35:11.086Z,9.00
2024-02-02T18:45:15.714Z,9.40
2024-02-02T18:55:20.353Z,9.17
2024-02-02T19:05:25.120Z,9.87
2024-02-02T19:15:33.111Z,11.23
2024-02-02T19:25:40.210Z,11.10
2024-02-02T19:35:48.992Z,10.97
2024-02-02T19:45:53.861Z,6.13
2024-02-02T19:56:01.078Z,11.67
2024-02-02T20:06:03.770Z,11.27
2024-02-02T20:16:06.329Z,10.47
2024-02-02T20:26:21.865Z,11.07
2024-02-02T20:36:32.042Z,11.33
2024-02-02T20:46:36.727Z,12.40
2024-02-02T20:56:45.251Z,10.17
2024-02-02T21:06:50.141Z,14.67
2024-02-02T21:16:59.721Z,14.83
2024-02-02T21:27:04.666Z,12.97
2024-02-02T21:37:07.140Z,13.60
2024-02-02T21:47:09.599Z,12.20
2024-02-02T21:57:11.840Z,8.93
2024-02-02T22:07:16.754Z,11.53
2024-02-02T22:17:23.964Z,12.77
2024-02-02T22:27:26.452Z,13.23
2024-02-02T22:37:28.771Z,13.00
2024-02-02T22:47:34.469Z,11.90
2024-02-02T22:57:37.013Z,12.17
2024-02-02T23:07:42.670Z,12.50
2024-02-02T23:17:48.740Z,11.27
2024-02-02T23:27:54.611Z,12.10
2024-02-02T23:37:59.363Z,16.50
2024-02-02T23:48:07.570Z,11.47
2024-02-02T23:58:10.368Z,12.43
